Time;durP1;ratioP1;P1;durP2;ratioP2;P2;SDS_P1;SDS_P2;PMS_P1;PMS_P2;Temp;Humidity;BMP_temperature;BMP_pressure;BME280_temperature;BME280_humidity;BME280_pressure;Samples;Min_cycle;Max_cycle;Signal;HPM_P1;HPM_P2
2022/01/29 00:00:08;;;;;;;64.82;30.80;;;7.10;99.90;;;;;;5032542;28;20040;-65
2022/01/29 00:02:33;;;;;;;67.20;28.95;;;7.10;99.90;;;;;;5017708;28;20508;-65
2022/01/29 00:04:59;;;;;;;61.95;30.42;;;7.10;99.90;;;;;;5035246;28;20129;-65
2022/01/29 00:07:24;;;;;;;62.75;31.88;;;7.10;99.90;;;;;;5035453;28;20061;-65
2022/01/29 00:09:50;;;;;;;57.58;29.10;;;7.10;99.90;;;;;;5035423;28;20418;-65
2022/01/29 00:12:16;;;;;;;64.63;32.20;;;7.10;99.90;;;;;;5035200;28;20040;-65
2022/01/29 00:14:41;;;;;;;62.00;30.77;;;7.10;99.90;;;;;;5017398;28;20052;-65
2022/01/29 00:17:07;;;;;;;68.78;32.35;;;7.10;99.90;;;;;;5035114;28;20545;-65
2022/01/29 00:19:33;;;;;;;66.63;30.70;;;7.10;99.90;;;;;;5034515;28;20544;-65
2022/01/29 00:22:00;;;;;;;64.22;31.33;;;7.10;99.90;;;;;;5034740;28;20038;-65
2022/01/29 00:24:25;;;;;;;57.60;28.80;;;7.10;99.90;;;;;;5034979;28;20121;-65
2022/01/29 00:26:51;;;;;;;68.18;32.42;;;7.10;99.90;;;;;;5016959;28;20148;-65
2022/01/29 00:29:20;;;;;;;63.00;30.42;;;7.10;99.90;;;;;;5034896;28;20045;-65
2022/01/29 00:31:46;;;;;;;68.43;32.22;;;7.10;99.90;;;;;;5034460;28;20052;-65
2022/01/29 00:34:12;;;;;;;58.38;31.00;;;7.10;99.90;;;;;;5034956;28;20088;-65
2022/01/29 00:36:38;;;;;;;59.47;32.08;;;7.10;99.90;;;;;;5035666;28;20064;-65
2022/01/29 00:39:04;;;;;;;59.53;31.45;;;7.10;99.90;;;;;;5037439;28;20073;-65
2022/01/29 00:41:29;;;;;;;62.03;31.58;;;7.10;99.90;;;;;;5034384;28;20041;-65
2022/01/29 00:43:55;;;;;;;62.70;31.25;;;7.10;99.90;;;;;;5021025;28;20068;-65
2022/01/29 00:46:20;;;;;;;51.95;27.10;;;7.10;99.90;;;;;;5054280;28;20040;-65
2022/01/29 00:48:46;;;;;;;60.53;30.20;;;7.10;99.90;;;;;;5054517;28;20052;-65
2022/01/29 00:51:11;;;;;;;59.15;29.48;;;7.10;99.90;;;;;;5054706;28;20037;-65
2022/01/29 00:53:37;;;;;;;56.38;28.77;;;7.10;99.90;;;;;;5036164;28;20048;-65
2022/01/29 00:56:07;;;;;;;58.85;28.75;;;7.10;99.90;;;;;;5036747;28;20091;-65
2022/01/29 00:58:33;;;;;;;59.53;29.73;;;7.10;99.90;;;;;;5054457;28;20065;-65
2022/01/29 01:01:00;;;;;;;61.83;30.75;;;7.10;99.90;;;;;;5054255;28;20124;-65
2022/01/29 01:03:25;;;;;;;54.92;30.00;;;7.10;99.90;;;;;;5035903;28;20090;-65
2022/01/29 01:05:51;;;;;;;54.33;29.30;;;7.10;99.90;;;;;;5054315;28;20432;-65
2022/01/29 01:08:16;;;;;;;58.90;29.92;;;7.10;99.90;;;;;;5054582;28;20033;-65
2022/01/29 01:10:42;;;;;;;53.53;27.67;;;7.10;99.90;;;;;;5053910;28;20077;-65
2022/01/29 01:13:08;;;;;;;62.85;31.25;;;7.10;99.90;;;;;;5053943;28;20039;-65
2022/01/29 01:15:34;;;;;;;51.45;27.92;;;7.10;99.90;;;;;;5054061;28;20044;-65
2022/01/29 01:17:59;;;;;;;58.20;28.67;;;7.10;99.90;;;;;;5036086;28;20049;-66
2022/01/29 01:20:25;;;;;;;60.08;29.30;;;7.10;99.90;;;;;;5054128;28;20045;-64
2022/01/29 01:22:50;;;;;;;52.92;28.80;;;7.10;99.90;;;;;;5053759;28;20386;-64
2022/01/29 01:25:16;;;;;;;58.13;28.35;;;7.10;99.90;;;;;;5054029;28;20079;-64
2022/01/29 01:27:42;;;;;;;51.50;28.10;;;7.00;99.90;;;;;;5053790;28;20032;-65
2022/01/29 01:30:08;;;;;;;55.65;27.63;;;7.10;99.90;;;;;;5053793;28;20116;-65
2022/01/29 01:32:34;;;;;;;53.38;27.23;;;7.00;99.90;;;;;;5053105;28;20029;-65
2022/01/29 01:35:10;;;;;;;54.83;27.67;;;7.10;99.90;;;;;;5053464;28;20098;-65
2022/01/29 01:37:47;;;;;;;56.35;29.30;;;7.10;99.90;;;;;;5053377;28;20437;-66
2022/01/29 01:40:14;;;;;;;58.30;29.20;;;7.10;99.90;;;;;;5035747;28;20041;-64
2022/01/29 01:42:40;;;;;;;57.75;28.30;;;7.10;99.90;;;;;;5053234;28;20048;-65
2022/01/29 01:45:06;;;;;;;51.55;27.67;;;7.10;99.90;;;;;;5053247;28;20037;-65
2022/01/29 01:47:31;;;;;;;51.05;25.85;;;7.10;99.90;;;;;;5054793;28;20041;-65
2022/01/29 01:49:57;;;;;;;48.03;25.30;;;7.10;99.90;;;;;;5038879;28;20048;-65
2022/01/29 01:52:22;;;;;;;49.38;25.23;;;7.10;99.90;;;;;;5053736;28;20045;-65
2022/01/29 01:54:48;;;;;;;51.47;26.02;;;7.10;99.90;;;;;;5053538;28;20127;-65
2022/01/29 01:57:14;;;;;;;49.10;26.42;;;7.10;99.90;;;;;;5053435;28;20379;-65
2022/01/29 01:59:40;;;;;;;49.75;25.23;;;7.10;99.90;;;;;;5053129;28;20040;-65
2022/01/29 02:02:05;;;;;;;48.53;25.30;;;7.10;99.90;;;;;;5053135;28;20037;-65
2022/01/29 02:04:33;;;;;;;46.25;24.27;;;7.20;99.90;;;;;;5053159;28;20131;-65
2022/01/29 02:06:59;;;;;;;46.22;25.13;;;7.20;99.90;;;;;;5053121;28;20051;-65
2022/01/29 02:09:25;;;;;;;42.90;24.63;;;7.10;99.90;;;;;;5035068;28;20048;-66
2022/01/29 02:11:53;;;;;;;48.45;24.63;;;7.20;99.90;;;;;;5052730;28;20041;-65
2022/01/29 02:14:23;;;;;;;46.80;24.65;;;7.20;99.90;;;;;;5052757;28;20119;-65
2022/01/29 02:16:49;;;;;;;47.95;23.08;;;7.20;99.90;;;;;;5052948;28;20039;-65
2022/01/29 02:19:14;;;;;;;48.65;24.20;;;7.20;99.90;;;;;;5035109;28;20033;-65
2022/01/29 02:21:40;;;;;;;48.17;24.42;;;7.20;99.90;;;;;;5052401;28;20376;-65
2022/01/29 02:24:06;;;;;;;49.20;23.63;;;7.20;99.90;;;;;;5051722;28;20140;-66
2022/01/29 02:26:31;;;;;;;48.88;24.00;;;7.20;99.90;;;;;;5052613;28;20055;-65
2022/01/29 02:28:57;;;;;;;51.50;24.13;;;7.20;99.90;;;;;;5052393;28;20057;-65
2022/01/29 02:31:23;;;;;;;47.60;23.30;;;7.20;99.90;;;;;;5052570;28;20041;-65
2022/01/29 02:33:48;;;;;;;44.25;23.08;;;7.20;99.90;;;;;;5034636;28;20037;-65
2022/01/29 02:36:14;;;;;;;45.65;22.92;;;7.20;99.90;;;;;;5052401;28;20040;-66
2022/01/29 02:38:40;;;;;;;48.60;23.65;;;7.20;99.90;;;;;;5034515;28;20122;-66
2022/01/29 02:41:06;;;;;;;47.95;22.40;;;7.30;99.90;;;;;;5052383;28;20040;-65
2022/01/29 02:44:00;;;;;;;43.50;24.13;;;7.30;99.90;;;;;;5051905;28;20052;-65
2022/01/29 02:46:48;;;;;;;;;;;7.30;99.90;;;;;;5052393;28;20524;-65
2022/01/29 02:49:15;;;;;;;42.17;21.92;;;7.30;99.90;;;;;;5034473;28;19923;-65
2022/01/29 02:51:49;;;;;;;48.10;22.77;;;7.30;99.90;;;;;;5051746;28;20037;-65
2022/01/29 02:54:15;;;;;;;48.35;21.90;;;7.30;99.90;;;;;;5052332;28;20458;-65
2022/01/29 02:56:41;;;;;;;46.35;22.95;;;7.30;99.90;;;;;;5051988;28;20082;-65
2022/01/29 02:59:07;;;;;;;53.45;25.60;;;7.30;99.90;;;;;;5052155;28;20041;-65
2022/01/29 03:01:33;;;;;;;51.33;24.45;;;7.30;99.90;;;;;;5053669;28;20493;-65
2022/01/29 03:03:58;;;;;;;52.83;24.88;;;7.30;99.90;;;;;;5055517;28;20037;-65
2022/01/29 03:06:24;;;;;;;48.85;23.30;;;7.30;99.90;;;;;;5018279;28;20095;-65
2022/01/29 03:08:49;;;;;;;47.17;24.08;;;7.30;99.90;;;;;;5034187;28;20045;-65
2022/01/29 03:11:19;;;;;;;47.88;23.40;;;7.30;99.90;;;;;;5034068;28;20044;-65
2022/01/29 03:13:46;;;;;;;46.72;22.42;;;7.30;99.90;;;;;;5051886;28;20124;-65
2022/01/29 03:16:11;;;;;;;53.83;25.52;;;7.30;99.90;;;;;;5051953;28;20056;-65
2022/01/29 03:18:37;;;;;;;49.35;24.95;;;7.40;99.90;;;;;;5017426;28;20029;-66
2022/01/29 03:21:02;;;;;;;50.70;23.73;;;7.30;99.90;;;;;;5051678;28;20037;-65
2022/01/29 03:23:28;;;;;;;54.50;24.80;;;7.40;99.90;;;;;;5051624;28;20041;-65
2022/01/29 03:25:53;;;;;;;51.03;24.83;;;7.40;99.90;;;;;;5051785;28;20052;-65
2022/01/29 03:28:19;;;;;;;51.70;23.67;;;7.40;99.90;;;;;;5051677;28;20029;-66
2022/01/29 03:30:44;;;;;;;52.72;24.00;;;7.40;99.90;;;;;;5051608;28;20111;-65
2022/01/29 03:33:10;;;;;;;51.03;24.98;;;7.40;99.90;;;;;;5051230;28;20037;-66
2022/01/29 03:35:36;;;;;;;51.80;23.73;;;7.40;99.90;;;;;;5051359;28;20044;-65
2022/01/29 03:38:03;;;;;;;54.35;25.40;;;7.40;99.90;;;;;;5051545;28;20048;-65
2022/01/29 03:40:30;;;;;;;52.13;25.65;;;7.40;99.90;;;;;;5051709;28;20099;-65
2022/01/29 03:43:06;;;;;;;52.35;25.90;;;7.40;99.90;;;;;;5051176;28;20041;-65
2022/01/29 03:45:32;;;;;;;53.67;24.83;;;7.40;99.90;;;;;;5051591;28;20485;-66
2022/01/29 03:47:58;;;;;;;49.85;24.08;;;7.40;99.90;;;;;;5051226;28;20045;-65
2022/01/29 03:50:23;;;;;;;51.63;25.40;;;7.40;99.90;;;;;;5051602;28;20033;-65
2022/01/29 03:52:49;;;;;;;51.78;24.10;;;7.40;99.90;;;;;;5051087;28;20119;-65
2022/01/29 03:55:14;;;;;;;53.65;25.48;;;7.50;99.90;;;;;;5051537;28;20040;-66
2022/01/29 03:57:40;;;;;;;46.90;24.20;;;7.40;99.90;;;;;;5051268;28;20040;-66
2022/01/29 04:00:07;;;;;;;48.20;24.05;;;7.40;99.90;;;;;;5051404;28;20512;-65
2022/01/29 04:02:33;;;;;;;53.35;25.63;;;7.40;99.90;;;;;;5050865;28;20041;-65
2022/01/29 04:04:59;;;;;;;52.92;24.02;;;7.50;99.90;;;;;;5033433;28;20063;-66
2022/01/29 04:07:24;;;;;;;50.15;24.70;;;7.50;99.90;;;;;;5051239;28;20045;-65
2022/01/29 04:09:51;;;;;;;61.55;25.67;;;7.40;99.90;;;;;;5051431;28;20041;-65
2022/01/29 04:12:17;;;;;;;53.78;25.30;;;7.50;99.90;;;;;;5050739;28;20094;-66
2022/01/29 04:14:43;;;;;;;52.80;23.38;;;7.50;99.90;;;;;;5051543;28;20115;-65
2022/01/29 04:17:11;;;;;;;50.70;24.27;;;7.50;99.90;;;;;;5054105;28;20532;-65
2022/01/29 04:19:37;;;;;;;47.83;23.40;;;7.50;99.90;;;;;;5052697;28;20379;-65
2022/01/29 04:22:04;;;;;;;48.60;24.42;;;7.50;99.90;;;;;;5050856;28;20464;-65
2022/01/29 04:24:30;;;;;;;47.33;23.50;;;7.50;99.90;;;;;;5051233;28;20041;-65
2022/01/29 04:26:56;;;;;;;50.42;24.00;;;7.50;99.90;;;;;;5051201;28;20091;-66
2022/01/29 04:29:22;;;;;;;49.20;24.52;;;7.50;99.90;;;;;;5050800;28;20041;-65
2022/01/29 04:32:00;;;;;;;56.45;24.25;;;7.50;99.90;;;;;;5050668;28;20064;-65
2022/01/29 04:34:26;;;;;;;60.00;22.77;;;7.60;99.90;;;;;;5033311;28;20033;-65
2022/01/29 04:36:52;;;;;;;49.40;23.40;;;7.60;99.90;;;;;;5051209;28;20100;-66
2022/01/29 04:39:17;;;;;;;49.22;23.27;;;7.60;99.90;;;;;;5017060;28;20437;-65
2022/01/29 04:41:43;;;;;;;54.58;24.58;;;7.60;99.90;;;;;;5050784;28;20041;-66
2022/01/29 04:44:09;;;;;;;52.85;22.17;;;7.60;99.90;;;;;;5050517;28;20394;-65
2022/01/29 04:46:34;;;;;;;53.05;22.52;;;7.60;99.90;;;;;;5052587;28;20037;-65
2022/01/29 04:49:00;;;;;;;52.33;23.05;;;7.70;99.90;;;;;;5036821;28;20040;-65
2022/01/29 04:51:25;;;;;;;46.80;21.45;;;7.60;99.90;;;;;;5054815;28;20060;-65
2022/01/29 04:53:51;;;;;;;51.45;21.90;;;7.70;99.90;;;;;;5036333;28;20516;-65
2022/01/29 04:56:16;;;;;;;46.17;20.33;;;7.70;99.90;;;;;;5054373;28;20068;-65
2022/01/29 04:58:42;;;;;;;49.75;21.15;;;7.70;99.90;;;;;;5054185;28;20033;-65
2022/01/29 05:01:08;;;;;;;45.30;21.85;;;7.70;99.90;;;;;;5054585;28;20064;-66
2022/01/29 05:03:34;;;;;;;50.45;22.10;;;7.70;99.90;;;;;;5054176;28;20045;-66
2022/01/29 05:06:00;;;;;;;45.67;21.50;;;7.70;99.90;;;;;;5054216;28;20044;-65
2022/01/29 05:08:26;;;;;;;48.67;20.30;;;7.70;99.90;;;;;;5054288;28;20047;-66
2022/01/29 05:10:53;;;;;;;40.72;20.35;;;7.80;99.90;;;;;;5054213;28;20505;-65
2022/01/29 05:13:22;;;;;;;45.80;20.75;;;7.80;99.90;;;;;;5053558;28;20049;-66
2022/01/29 05:16:12;;;;;;;42.75;19.48;;;7.80;99.90;;;;;;5054298;28;20036;-65
2022/01/29 05:27:04;;;;;;;43.58;18.73;;;7.90;99.90;;;;;;5053612;28;20049;-66
2022/01/29 05:29:31;;;;;;;40.80;17.63;;;7.90;99.90;;;;;;5038692;28;20055;-65
2022/01/29 05:32:02;;;;;;;38.30;19.08;;;8.00;99.90;;;;;;5058231;28;20696;-65
2022/01/29 05:34:27;;;;;;;42.75;18.98;;;8.00;99.90;;;;;;5054688;28;20051;-65
2022/01/29 05:36:53;;;;;;;33.92;17.75;;;8.00;99.90;;;;;;5053581;28;20116;-65
2022/01/29 05:39:20;;;;;;;39.67;17.75;;;8.00;99.90;;;;;;5053888;28;20045;-65
2022/01/29 05:41:45;;;;;;;39.95;17.90;;;8.00;99.90;;;;;;5053232;28;20544;-65
2022/01/29 05:44:11;;;;;;;39.38;16.85;;;8.00;99.90;;;;;;5053430;28;20064;-65
2022/01/29 05:46:37;;;;;;;36.92;16.65;;;8.10;99.90;;;;;;5053256;28;20102;-65
2022/01/29 05:49:02;;;;;;;40.03;17.02;;;8.10;99.90;;;;;;5053659;28;20041;-65
2022/01/29 05:51:30;;;;;;;36.50;16.45;;;8.10;99.90;;;;;;5053540;28;20073;-66
2022/01/29 05:54:00;;;;;;;36.17;17.50;;;8.10;99.90;;;;;;5053256;28;20099;-66
2022/01/29 05:56:26;;;;;;;36.38;16.77;;;8.10;99.90;;;;;;5053313;28;20029;-65
2022/01/29 05:58:52;;;;;;;38.88;17.85;;;8.10;99.90;;;;;;5053130;28;20128;-66
2022/01/29 06:01:17;;;;;;;38.25;16.92;;;8.10;99.90;;;;;;5052849;28;20119;-66
2022/01/29 06:03:43;;;;;;;34.53;16.40;;;8.20;99.90;;;;;;5053015;28;20044;-66
2022/01/29 06:06:09;;;;;;;33.97;17.13;;;8.20;99.90;;;;;;5053354;28;20093;-66
2022/01/29 06:08:34;;;;;;;33.72;17.17;;;8.20;99.90;;;;;;5053168;28;20112;-65
2022/01/29 06:11:00;;;;;;;31.52;16.00;;;8.20;99.90;;;;;;5052885;28;20430;-65
2022/01/29 06:13:25;;;;;;;43.90;17.60;;;8.20;99.90;;;;;;5052475;28;20041;-65
2022/01/29 06:15:52;;;;;;;32.35;16.05;;;8.20;99.90;;;;;;5052707;28;20041;-65
2022/01/29 06:18:21;;;;;;;28.95;15.75;;;8.20;99.90;;;;;;5052845;28;20041;-66
2022/01/29 06:20:49;;;;;;;36.67;17.20;;;8.20;99.90;;;;;;5052924;28;20044;-65
2022/01/29 06:23:18;;;;;;;28.85;17.05;;;8.20;99.90;;;;;;5052572;28;20429;-65
2022/01/29 06:25:43;;;;;;;36.65;17.15;;;8.30;99.90;;;;;;5052614;28;20401;-65
2022/01/29 06:28:10;;;;;;;32.72;16.30;;;8.20;99.90;;;;;;5034580;28;20037;-66
2022/01/29 06:30:35;;;;;;;32.65;15.60;;;8.30;99.90;;;;;;5052739;28;20041;-65
2022/01/29 06:33:11;;;;;;;34.58;16.38;;;8.30;99.90;;;;;;5052429;28;20036;-65
2022/01/29 06:35:38;;;;;;;32.33;15.48;;;8.30;99.90;;;;;;5052422;28;20033;-65
2022/01/29 06:38:06;;;;;;;34.25;15.95;;;8.30;99.90;;;;;;5052492;28;20444;-65
2022/01/29 06:40:32;;;;;;;34.13;16.67;;;8.30;99.90;;;;;;5052553;28;20039;-65
2022/01/29 06:42:58;;;;;;;35.22;15.50;;;8.40;99.90;;;;;;5052277;28;20033;-65
2022/01/29 06:45:23;;;;;;;28.80;15.93;;;8.30;99.90;;;;;;5055638;28;20467;-66
2022/01/29 06:47:49;;;;;;;32.03;16.02;;;8.30;99.90;;;;;;5054380;28;20037;-65
2022/01/29 06:50:15;;;;;;;30.85;15.60;;;8.40;99.90;;;;;;5052646;28;20094;-66
2022/01/29 06:52:40;;;;;;;27.15;16.33;;;8.40;99.90;;;;;;5052125;28;20518;-66
2022/01/29 06:55:06;;;;;;;28.08;14.65;;;8.40;99.90;;;;;;5052303;28;20462;-65
2022/01/29 06:57:31;;;;;;;32.28;14.90;;;8.40;99.90;;;;;;5052013;28;20532;-66
2022/01/29 06:59:57;;;;;;;29.15;14.25;;;8.40;99.90;;;;;;5034189;28;20064;-66
2022/01/29 07:02:23;;;;;;;30.52;15.90;;;8.40;99.90;;;;;;5051977;28;20390;-66
2022/01/29 07:04:48;;;;;;;29.48;14.98;;;8.40;99.90;;;;;;5052190;28;20585;-65
2022/01/29 07:07:14;;;;;;;21.70;13.70;;;8.40;99.90;;;;;;5034049;28;20041;-65
2022/01/29 07:09:39;;;;;;;26.33;14.35;;;8.40;99.90;;;;;;5051524;28;20041;-66
2022/01/29 07:12:10;;;;;;;21.52;12.80;;;8.40;99.90;;;;;;5051494;28;20037;-66
2022/01/29 07:14:39;;;;;;;28.40;14.57;;;8.40;99.90;;;;;;5034287;28;20048;-66
2022/01/29 07:17:11;;;;;;;27.92;13.35;;;8.40;99.90;;;;;;5034272;28;20045;-66
2022/01/29 07:19:37;;;;;;;27.20;13.18;;;8.40;99.90;;;;;;5051924;28;20040;-66
2022/01/29 07:22:04;;;;;;;32.75;13.15;;;8.40;99.90;;;;;;5051569;28;20041;-66
2022/01/29 07:24:30;;;;;;;24.73;13.23;;;8.40;99.90;;;;;;5051739;28;20098;-66
2022/01/29 07:26:56;;;;;;;28.20;14.52;;;8.50;99.90;;;;;;5051529;28;20367;-66
2022/01/29 07:29:21;;;;;;;26.58;14.80;;;8.50;99.90;;;;;;5051537;28;20052;-66
2022/01/29 07:31:47;;;;;;;25.73;12.65;;;8.50;99.90;;;;;;5051283;28;20033;-66
2022/01/29 07:34:12;;;;;;;30.45;13.45;;;8.50;99.90;;;;;;5051720;28;20030;-65
2022/01/29 07:36:38;;;;;;;25.52;12.35;;;8.50;99.90;;;;;;5059027;28;20173;-65
2022/01/29 07:39:04;;;;;;;24.77;12.68;;;8.50;99.90;;;;;;5071520;28;20504;-66
2022/01/29 07:41:29;;;;;;;24.52;11.68;;;8.50;99.90;;;;;;5071776;28;20125;-66
2022/01/29 07:43:55;;;;;;;24.45;11.65;;;8.50;99.90;;;;;;5071222;28;20040;-65
2022/01/29 07:46:20;;;;;;;24.70;12.75;;;8.50;99.90;;;;;;5071432;28;20044;-65
2022/01/29 07:48:46;;;;;;;25.48;13.63;;;8.50;99.90;;;;;;5069387;28;20417;-66
2022/01/29 07:51:11;;;;;;;24.30;11.65;;;8.50;99.90;;;;;;5068267;28;20488;-65
2022/01/29 07:53:37;;;;;;;19.63;12.45;;;8.50;99.90;;;;;;5068504;28;20036;-65
2022/01/29 07:56:02;;;;;;;25.10;13.02;;;8.50;99.90;;;;;;5070038;28;20037;-65
2022/01/29 07:58:28;;;;;;;25.92;12.93;;;8.50;99.90;;;;;;5075217;28;20040;-65
2022/01/29 08:00:54;;;;;;;22.10;12.73;;;8.50;99.90;;;;;;5073726;28;20511;-64
2022/01/29 08:03:19;;;;;;;23.13;12.05;;;8.50;99.90;;;;;;5070895;28;20739;-65
2022/01/29 08:05:45;;;;;;;25.67;13.48;;;8.50;99.90;;;;;;5070587;28;20045;-65
2022/01/29 08:08:10;;;;;;;23.13;12.23;;;8.50;99.90;;;;;;5069819;28;20079;-65
2022/01/29 08:10:36;;;;;;;23.70;12.05;;;8.50;99.90;;;;;;5070738;28;20036;-65
2022/01/29 08:13:01;;;;;;;24.27;12.60;;;8.50;99.90;;;;;;5070633;28;20032;-64
2022/01/29 08:15:27;;;;;;;25.05;12.43;;;8.50;99.90;;;;;;5071389;28;20440;-65
2022/01/29 08:17:53;;;;;;;25.40;12.13;;;8.50;99.90;;;;;;5071302;28;20485;-65
2022/01/29 08:20:18;;;;;;;26.58;11.90;;;8.50;99.90;;;;;;5053274;28;20048;-65
2022/01/29 08:22:44;;;;;;;24.80;11.68;;;8.60;99.90;;;;;;5074744;28;20032;-65
2022/01/29 08:25:09;;;;;;;30.33;12.23;;;8.60;99.90;;;;;;5057293;28;20040;-65
2022/01/29 08:27:35;;;;;;;26.17;12.73;;;8.60;99.90;;;;;;5057200;28;20080;-65
2022/01/29 08:30:01;;;;;;;25.52;12.23;;;8.60;99.90;;;;;;5074833;28;20040;-65
2022/01/29 08:32:26;;;;;;;25.98;12.05;;;8.60;99.90;;;;;;5056659;28;20048;-65
2022/01/29 08:34:52;;;;;;;22.42;12.18;;;8.60;99.90;;;;;;5057088;28;20094;-65
2022/01/29 08:37:17;;;;;;;22.70;11.20;;;8.70;99.90;;;;;;5074773;28;20115;-66
2022/01/29 08:39:45;;;;;;;22.63;12.02;;;8.60;99.90;;;;;;5074583;28;20123;-66
2022/01/29 08:42:11;;;;;;;22.70;11.93;;;8.70;99.90;;;;;;5074179;28;20496;-65
2022/01/29 08:44:36;;;;;;;26.58;11.77;;;8.70;99.90;;;;;;5074554;28;20036;-65
2022/01/29 08:47:03;;;;;;;22.30;11.32;;;8.70;99.90;;;;;;5074401;28;20040;-66
2022/01/29 08:49:29;;;;;;;26.40;11.30;;;8.70;99.90;;;;;;5074599;28;20048;-66
2022/01/29 08:51:55;;;;;;;17.27;9.88;;;8.70;99.90;;;;;;5074275;28;20041;-67
2022/01/29 08:54:21;;;;;;;21.55;10.75;;;8.80;99.90;;;;;;5074632;28;20055;-66
2022/01/29 08:56:46;;;;;;;28.33;10.90;;;8.80;99.90;;;;;;5074233;28;20032;-66
2022/01/29 08:59:12;;;;;;;19.40;9.75;;;8.80;99.90;;;;;;5074360;28;20501;-64
2022/01/29 09:01:38;;;;;;;19.17;8.85;;;8.80;99.90;;;;;;5074112;28;20029;-64
2022/01/29 09:04:03;;;;;;;15.35;8.75;;;8.80;99.90;;;;;;5074240;28;20128;-65
2022/01/29 09:06:29;;;;;;;14.07;9.80;;;8.90;99.90;;;;;;5056105;28;20112;-65
2022/01/29 09:08:55;;;;;;;16.63;8.88;;;8.80;99.90;;;;;;5074733;28;20048;-65
2022/01/29 09:11:20;;;;;;;22.88;9.40;;;8.90;99.90;;;;;;5060983;28;20044;-67
2022/01/29 09:13:47;;;;;;;16.27;8.05;;;8.90;99.90;;;;;;5059110;28;20047;-64
2022/01/29 09:16:12;;;;;;;20.60;10.32;;;8.90;99.90;;;;;;5073319;28;20040;-66
2022/01/29 09:18:38;;;;;;;15.88;9.88;;;8.90;99.90;;;;;;5056202;28;20434;-65
2022/01/29 09:21:05;;;;;;;14.63;8.55;;;8.90;99.90;;;;;;5074218;28;20041;-65
2022/01/29 09:23:30;;;;;;;14.98;8.85;;;8.90;99.90;;;;;;5073880;28;20044;-66
2022/01/29 09:25:56;;;;;;;16.75;8.35;;;9.00;99.90;;;;;;5070999;28;20446;-65
2022/01/29 09:28:22;;;;;;;13.80;8.75;;;8.90;99.90;;;;;;5062848;28;20032;-65
2022/01/29 09:30:49;;;;;;;23.98;9.48;;;9.00;99.90;;;;;;5063234;28;20123;-65
2022/01/29 09:33:15;;;;;;;14.52;7.93;;;9.00;99.90;;;;;;5052082;28;20041;-65
2022/01/29 09:35:42;;;;;;;14.88;8.38;;;9.00;99.90;;;;;;5053073;28;20041;-65
2022/01/29 09:38:09;;;;;;;15.43;9.65;;;9.00;99.90;;;;;;5053478;28;20447;-65
2022/01/29 09:40:36;;;;;;;16.13;9.13;;;9.10;99.90;;;;;;5053296;28;20489;-66
2022/01/29 09:43:05;;;;;;;18.67;10.55;;;9.10;99.90;;;;;;5052792;28;20489;-65
2022/01/29 09:45:32;;;;;;;15.20;9.80;;;9.10;99.90;;;;;;5058672;28;20044;-66
2022/01/29 09:48:04;;;;;;;18.17;8.98;;;9.10;99.90;;;;;;5035914;28;20072;-65
2022/01/29 09:50:35;;;;;;;23.10;9.57;;;9.10;99.90;;;;;;5053922;28;20134;-65
2022/01/29 09:53:03;;;;;;;15.98;8.93;;;9.10;99.90;;;;;;5053474;28;20041;-65
2022/01/29 09:55:29;;;;;;;15.05;8.95;;;9.10;99.90;;;;;;5053519;28;20120;-65
2022/01/29 09:57:55;;;;;;;17.08;8.57;;;9.10;99.90;;;;;;5018785;28;20041;-65
2022/01/29 10:00:21;;;;;;;19.88;9.45;;;9.20;99.90;;;;;;5053188;28;20124;-65
2022/01/29 10:03:12;;;;;;;20.42;8.82;;;9.20;99.90;;;;;;5052719;28;20111;-66
2022/01/29 10:05:47;;;;;;;16.65;7.93;;;9.20;99.90;;;;;;5060194;28;20033;-65
2022/01/29 10:08:13;;;;;;;13.10;8.00;;;9.20;99.90;;;;;;5061529;28;20067;-66
2022/01/29 10:10:41;;;;;;;20.02;8.98;;;9.30;99.90;;;;;;5062904;28;20033;-66
2022/01/29 10:13:26;;;;;;;12.88;7.72;;;9.30;99.90;;;;;;5071504;28;20388;-66
2022/01/29 10:16:02;;;;;;;13.63;7.28;;;9.30;99.90;;;;;;5055192;28;20128;-66
2022/01/29 10:18:28;;;;;;;15.82;7.45;;;9.30;99.90;;;;;;5072759;28;20547;-66
2022/01/29 10:21:07;;;;;;;16.60;8.35;;;9.40;99.90;;;;;;5072973;28;20072;-66
2022/01/29 10:23:33;;;;;;;11.10;7.13;;;9.40;99.90;;;;;;5055957;28;20112;-66
2022/01/29 10:25:58;;;;;;;13.52;7.20;;;9.40;99.90;;;;;;5078977;28;20403;-66
2022/01/29 10:28:25;;;;;;;14.32;7.70;;;9.40;99.90;;;;;;5041910;28;20126;-66
2022/01/29 10:30:55;;;;;;;10.10;6.78;;;9.40;99.90;;;;;;5054284;28;20080;-65
2022/01/29 10:33:33;;;;;;;11.02;6.68;;;9.40;99.90;;;;;;5072203;28;20102;-66
2022/01/29 10:36:04;;;;;;;12.90;7.80;;;9.40;99.90;;;;;;5072253;28;20530;-65
2022/01/29 10:38:49;;;;;;;12.77;8.13;;;9.40;99.90;;;;;;5072641;28;20040;-66
2022/01/29 10:41:20;;;;;;;17.58;7.03;;;9.50;99.90;;;;;;5038084;28;20425;-66
2022/01/29 10:44:11;;;;;;;11.35;6.25;;;9.50;99.90;;;;;;5071421;28;20053;-66
2022/01/29 10:46:39;;;;;;;14.23;7.53;;;9.60;99.90;;;;;;5072312;28;20047;-66
2022/01/29 10:49:06;;;;;;;15.98;7.00;;;9.50;99.90;;;;;;5072607;28;20072;-66
2022/01/29 10:51:33;;;;;;;9.68;6.47;;;9.50;99.90;;;;;;5072013;28;20123;-66
2022/01/29 10:54:19;;;;;;;12.93;6.72;;;9.60;99.90;;;;;;5054227;28;20079;-66
2022/01/29 10:56:55;;;;;;;16.38;6.85;;;9.60;99.90;;;;;;5072278;28;20040;-66
2022/01/29 10:59:22;;;;;;;14.65;6.13;;;9.60;99.90;;;;;;5054351;28;20055;-66
2022/01/29 11:02:06;;;;;;;13.25;5.97;;;9.60;99.90;;;;;;5053888;28;20036;-66
2022/01/29 11:04:34;;;;;;;12.05;5.88;;;9.70;99.90;;;;;;5072253;28;20044;-67
2022/01/29 11:07:04;;;;;;;13.70;5.90;;;9.70;99.90;;;;;;5049259;28;20037;-68
2022/01/29 11:09:30;;;;;;;19.67;7.50;;;9.70;99.90;;;;;;5052794;28;20041;-67
2022/01/29 11:12:03;;;;;;;20.88;7.97;;;9.70;99.90;;;;;;5051883;28;20041;-68
2022/01/29 11:14:29;;;;;;;13.85;5.22;;;9.70;99.90;;;;;;5034433;28;20060;-66
2022/01/29 11:16:56;;;;;;;18.73;6.25;;;9.70;99.90;;;;;;5051895;28;20395;-66
2022/01/29 11:19:21;;;;;;;18.17;5.57;;;9.80;99.90;;;;;;5051880;28;20048;-66
2022/01/29 11:21:51;;;;;;;5.72;3.92;;;9.80;99.90;;;;;;5051717;28;20124;-66
2022/01/29 11:24:19;;;;;;;7.57;4.13;;;9.90;99.90;;;;;;5051882;28;20047;-66
2022/01/29 11:26:45;;;;;;;9.77;4.22;;;9.90;99.90;;;;;;5051907;28;20049;-65
2022/01/29 11:29:29;;;;;;;14.27;4.13;;;9.90;99.90;;;;;;5051796;28;20049;-65
2022/01/29 11:32:24;;;;;;;7.75;3.17;;;10.00;99.90;;;;;;5051320;28;20041;-66
2022/01/29 11:35:13;;;;;;;14.00;3.70;;;10.00;99.90;;;;;;5051722;28;20040;-65
2022/01/29 11:37:44;;;;;;;10.18;3.22;;;10.00;99.90;;;;;;5053239;28;20048;-65
2022/01/29 11:40:12;;;;;;;11.27;3.38;;;10.00;99.90;;;;;;5056661;28;20037;-65
2022/01/29 11:42:52;;;;;;;9.05;2.80;;;10.00;99.90;;;;;;5055396;28;20608;-64
2022/01/29 11:45:58;;;;;;;10.70;3.13;;;10.10;99.90;;;;;;5034271;28;20124;-65
2022/01/29 11:48:28;;;;;;;8.15;3.15;;;10.10;99.90;;;;;;5050028;28;20049;-65
2022/01/29 11:50:58;;;;;;;11.73;3.92;;;10.10;99.90;;;;;;5051719;28;20055;-65
2022/01/29 11:53:44;;;;;;;7.78;3.80;;;10.10;99.90;;;;;;5033535;28;20397;-65
2022/01/29 11:56:24;;;;;;;10.63;3.42;;;10.10;99.90;;;;;;5036616;28;20072;-65
2022/01/29 11:59:19;;;;;;;7.45;2.83;;;10.10;99.90;;;;;;5055374;28;20171;-65
2022/01/29 12:01:52;;;;;;;12.48;2.90;;;10.20;99.90;;;;;;5037315;28;20048;-65
2022/01/29 12:04:19;;;;;;;10.98;2.83;;;10.20;99.90;;;;;;5055475;28;20045;-64
2022/01/29 12:07:06;;;;;;;8.50;3.15;;;10.20;99.90;;;;;;5055236;28;20045;-65
2022/01/29 12:09:48;;;;;;;9.75;2.85;;;10.30;99.90;;;;;;5055093;28;20085;-65
2022/01/29 12:12:27;;;;;;;8.38;3.30;;;10.30;99.90;;;;;;5054924;28;20098;-65
2022/01/29 12:14:55;;;;;;;7.75;3.10;;;10.30;99.90;;;;;;5055053;28;20610;-65
2022/01/29 12:17:43;;;;;;;6.93;2.60;;;10.30;99.90;;;;;;5055291;28;20115;-65
2022/01/29 12:20:12;;;;;;;7.10;2.65;;;10.30;99.90;;;;;;5037534;28;20139;-63
2022/01/29 12:22:39;;;;;;;10.93;4.00;;;10.30;99.90;;;;;;5037135;28;20042;-64
2022/01/29 12:25:10;;;;;;;11.00;4.15;;;10.30;99.90;;;;;;5055001;28;20516;-64
2022/01/29 12:27:53;;;;;;;8.57;2.90;;;10.40;99.90;;;;;;5054917;28;20052;-67
2022/01/29 12:30:24;;;;;;;9.65;2.33;;;10.40;99.90;;;;;;5035204;28;20083;-66
2022/01/29 12:33:13;;;;;;;7.43;2.75;;;10.40;99.90;;;;;;5034801;28;20029;-65
2022/01/29 12:35:54;;;;;;;6.75;2.78;;;10.40;99.90;;;;;;5035237;28;20041;-65
2022/01/29 12:38:27;;;;;;;8.00;2.80;;;10.40;99.90;;;;;;5035005;28;20068;-65
2022/01/29 12:41:00;;;;;;;6.75;2.45;;;10.50;99.90;;;;;;5034029;28;20396;-65
2022/01/29 12:43:36;;;;;;;8.80;2.67;;;10.50;99.90;;;;;;5034512;28;20033;-64
2022/01/29 12:46:17;;;;;;;7.22;2.47;;;10.50;99.90;;;;;;5034558;28;20522;-64
2022/01/29 12:48:55;;;;;;;8.02;2.85;;;10.50;99.90;;;;;;5034827;28;20041;-64
2022/01/29 12:51:21;;;;;;;12.18;3.05;;;10.60;99.90;;;;;;5042863;28;20041;-65
2022/01/29 12:53:58;;;;;;;11.13;2.88;;;10.60;99.90;;;;;;5065371;28;20055;-65